sensor_id;sensor_type;location;lat;lon;timestamp;P1;durP1;ratioP1;P2;durP2;ratioP2
67092;SDS011;54011;50.772;7.730;2023-09-18T00:02:29;14.57;;;5.47;;
67092;SDS011;54011;50.772;7.730;2023-09-18T00:04:56;12.35;;;5.30;;
67092;SDS011;54011;50.772;7.730;2023-09-18T00:07:22;14.85;;;5.32;;
67092;SDS011;54011;50.772;7.730;2023-09-18T00:09:47;15.25;;;5.53;;
67092;SDS011;54011;50.772;7.730;2023-09-18T00:12:14;12.52;;;5.50;;
67092;SDS011;54011;50.772;7.730;2023-09-18T00:14:40;9.80;;;4.95;;
67092;SDS011;54011;50.772;7.730;2023-09-18T00:17:06;10.77;;;4.93;;
67092;SDS011;54011;50.772;7.730;2023-09-18T00:19:36;12.63;;;5.13;;
67092;SDS011;54011;50.772;7.730;2023-09-18T00:22:03;11.73;;;5.35;;
67092;SDS011;54011;50.772;7.730;2023-09-18T00:24:28;12.52;;;5.60;;
67092;SDS011;54011;50.772;7.730;2023-09-18T00:26:54;12.55;;;5.10;;
67092;SDS011;54011;50.772;7.730;2023-09-18T00:29:22;12.90;;;5.00;;
67092;SDS011;54011;50.772;7.730;2023-09-18T00:31:48;12.50;;;5.70;;
67092;SDS011;54011;50.772;7.730;2023-09-18T00:34:14;14.25;;;5.55;;
67092;SDS011;54011;50.772;7.730;2023-09-18T00:36:52;11.82;;;5.03;;
67092;SDS011;54011;50.772;7.730;2023-09-18T00:39:19;10.20;;;5.28;;
67092;SDS011;54011;50.772;7.730;2023-09-18T00:41:45;9.80;;;4.75;;
67092;SDS011;54011;50.772;7.730;2023-09-18T00:44:15;15.75;;;5.30;;
67092;SDS011;54011;50.772;7.730;2023-09-18T00:46:41;14.23;;;5.00;;
67092;SDS011;54011;50.772;7.730;2023-09-18T00:49:07;9.43;;;5.10;;
67092;SDS011;54011;50.772;7.730;2023-09-18T00:51:44;13.02;;;4.80;;
67092;SDS011;54011;50.772;7.730;2023-09-18T00:54:10;8.43;;;4.90;;
67092;SDS011;54011;50.772;7.730;2023-09-18T00:56:43;12.07;;;5.22;;
67092;SDS011;54011;50.772;7.730;2023-09-18T00:59:10;9.55;;;4.88;;
67092;SDS011;54011;50.772;7.730;2023-09-18T01:01:36;12.68;;;5.30;;
67092;SDS011;54011;50.772;7.730;2023-09-18T01:04:02;11.25;;;5.32;;
67092;SDS011;54011;50.772;7.730;2023-09-18T01:06:28;9.23;;;5.00;;
67092;SDS011;54011;50.772;7.730;2023-09-18T01:08:56;10.43;;;4.95;;
67092;SDS011;54011;50.772;7.730;2023-09-18T01:11:36;12.02;;;4.97;;
67092;SDS011;54011;50.772;7.730;2023-09-18T01:17:25;10.65;;;5.00;;
67092;SDS011;54011;50.772;7.730;2023-09-18T01:19:51;11.23;;;4.95;;
67092;SDS011;54011;50.772;7.730;2023-09-18T01:22:23;12.20;;;4.73;;
67092;SDS011;54011;50.772;7.730;2023-09-18T01:24:49;10.93;;;4.30;;
67092;SDS011;54011;50.772;7.730;2023-09-18T01:27:17;9.95;;;4.25;;
67092;SDS011;54011;50.772;7.730;2023-09-18T01:29:45;9.98;;;4.38;;
67092;SDS011;54011;50.772;7.730;2023-09-18T01:32:11;12.35;;;4.32;;
67092;SDS011;54011;50.772;7.730;2023-09-18T01:34:41;9.10;;;4.32;;
67092;SDS011;54011;50.772;7.730;2023-09-18T01:37:11;9.77;;;4.53;;
67092;SDS011;54011;50.772;7.730;2023-09-18T01:39:41;9.15;;;4.35;;
67092;SDS011;54011;50.772;7.730;2023-09-18T01:42:10;11.05;;;4.20;;
67092;SDS011;54011;50.772;7.730;2023-09-18T01:44:37;7.95;;;4.30;;
67092;SDS011;54011;50.772;7.730;2023-09-18T01:47:08;10.68;;;4.55;;
67092;SDS011;54011;50.772;7.730;2023-09-18T01:49:37;9.02;;;4.30;;
67092;SDS011;54011;50.772;7.730;2023-09-18T01:52:04;11.88;;;3.47;;
67092;SDS011;54011;50.772;7.730;2023-09-18T01:54:32;5.95;;;3.50;;
67092;SDS011;54011;50.772;7.730;2023-09-18T01:56:58;9.88;;;4.07;;
67092;SDS011;54011;50.772;7.730;2023-09-18T01:59:26;9.05;;;3.65;;
67092;SDS011;54011;50.772;7.730;2023-09-18T02:01:52;9.32;;;3.35;;
67092;SDS011;54011;50.772;7.730;2023-09-18T02:04:22;10.10;;;3.38;;
67092;SDS011;54011;50.772;7.730;2023-09-18T02:06:52;7.97;;;2.90;;
67092;SDS011;54011;50.772;7.730;2023-09-18T02:09:17;10.88;;;3.20;;
67092;SDS011;54011;50.772;7.730;2023-09-18T02:11:44;7.40;;;3.22;;
67092;SDS011;54011;50.772;7.730;2023-09-18T02:14:11;7.35;;;3.13;;
67092;SDS011;54011;50.772;7.730;2023-09-18T02:16:37;8.50;;;2.85;;
67092;SDS011;54011;50.772;7.730;2023-09-18T02:19:11;7.13;;;2.40;;
67092;SDS011;54011;50.772;7.730;2023-09-18T02:21:43;5.40;;;2.22;;
67092;SDS011;54011;50.772;7.730;2023-09-18T02:24:08;8.65;;;2.70;;
67092;SDS011;54011;50.772;7.730;2023-09-18T02:26:44;6.93;;;2.38;;
67092;SDS011;54011;50.772;7.730;2023-09-18T02:29:10;7.57;;;2.47;;
67092;SDS011;54011;50.772;7.730;2023-09-18T02:31:37;6.30;;;2.28;;
67092;SDS011;54011;50.772;7.730;2023-09-18T02:34:04;17.42;;;3.20;;
67092;SDS011;54011;50.772;7.730;2023-09-18T02:36:35;12.25;;;3.08;;
67092;SDS011;54011;50.772;7.730;2023-09-18T02:39:01;13.27;;;3.00;;
67092;SDS011;54011;50.772;7.730;2023-09-18T02:41:27;13.95;;;3.47;;
67092;SDS011;54011;50.772;7.730;2023-09-18T02:43:55;14.73;;;3.40;;
67092;SDS011;54011;50.772;7.730;2023-09-18T02:46:21;23.13;;;3.47;;
67092;SDS011;54011;50.772;7.730;2023-09-18T02:48:47;20.55;;;4.55;;
67092;SDS011;54011;50.772;7.730;2023-09-18T02:51:12;21.80;;;4.15;;
67092;SDS011;54011;50.772;7.730;2023-09-18T02:53:40;20.02;;;4.00;;
67092;SDS011;54011;50.772;7.730;2023-09-18T02:56:07;15.05;;;4.13;;
67092;SDS011;54011;50.772;7.730;2023-09-18T02:58:34;12.55;;;3.80;;
67092;SDS011;54011;50.772;7.730;2023-09-18T03:00:59;14.57;;;4.05;;
67092;SDS011;54011;50.772;7.730;2023-09-18T03:03:26;14.40;;;3.85;;
67092;SDS011;54011;50.772;7.730;2023-09-18T03:05:52;15.27;;;3.90;;
67092;SDS011;54011;50.772;7.730;2023-09-18T03:08:17;14.43;;;3.63;;
67092;SDS011;54011;50.772;7.730;2023-09-18T03:10:44;13.52;;;4.10;;
67092;SDS011;54011;50.772;7.730;2023-09-18T03:13:13;13.75;;;4.00;;
67092;SDS011;54011;50.772;7.730;2023-09-18T03:15:39;19.52;;;3.90;;
67092;SDS011;54011;50.772;7.730;2023-09-18T03:18:05;16.98;;;3.75;;
67092;SDS011;54011;50.772;7.730;2023-09-18T03:20:32;18.25;;;3.70;;
67092;SDS011;54011;50.772;7.730;2023-09-18T03:23:01;14.20;;;4.45;;
67092;SDS011;54011;50.772;7.730;2023-09-18T03:25:30;14.23;;;4.13;;
67092;SDS011;54011;50.772;7.730;2023-09-18T03:27:56;14.40;;;5.03;;
67092;SDS011;54011;50.772;7.730;2023-09-18T03:30:29;15.77;;;4.10;;
67092;SDS011;54011;50.772;7.730;2023-09-18T03:32:55;13.98;;;3.90;;
67092;SDS011;54011;50.772;7.730;2023-09-18T03:35:23;14.05;;;4.10;;
67092;SDS011;54011;50.772;7.730;2023-09-18T03:37:49;13.25;;;3.90;;
67092;SDS011;54011;50.772;7.730;2023-09-18T03:40:18;13.18;;;3.97;;
67092;SDS011;54011;50.772;7.730;2023-09-18T03:42:47;14.90;;;4.13;;
67092;SDS011;54011;50.772;7.730;2023-09-18T03:45:14;13.30;;;3.58;;
67092;SDS011;54011;50.772;7.730;2023-09-18T03:47:41;12.63;;;4.05;;
67092;SDS011;54011;50.772;7.730;2023-09-18T03:50:08;15.48;;;4.30;;
67092;SDS011;54011;50.772;7.730;2023-09-18T03:52:36;11.25;;;3.95;;
67092;SDS011;54011;50.772;7.730;2023-09-18T03:55:03;10.63;;;4.05;;
67092;SDS011;54011;50.772;7.730;2023-09-18T03:57:29;13.23;;;4.60;;
67092;SDS011;54011;50.772;7.730;2023-09-18T03:59:55;13.32;;;4.30;;
67092;SDS011;54011;50.772;7.730;2023-09-18T04:02:23;16.05;;;3.85;;
67092;SDS011;54011;50.772;7.730;2023-09-18T04:04:55;12.23;;;4.22;;
67092;SDS011;54011;50.772;7.730;2023-09-18T04:07:21;13.85;;;4.05;;
67092;SDS011;54011;50.772;7.730;2023-09-18T04:09:46;9.48;;;3.92;;
67092;SDS011;54011;50.772;7.730;2023-09-18T04:12:12;9.27;;;3.53;;
67092;SDS011;54011;50.772;7.730;2023-09-18T04:14:38;11.35;;;3.83;;
67092;SDS011;54011;50.772;7.730;2023-09-18T04:17:04;12.93;;;4.15;;
67092;SDS011;54011;50.772;7.730;2023-09-18T04:19:30;15.55;;;4.30;;
67092;SDS011;54011;50.772;7.730;2023-09-18T04:21:56;11.23;;;3.90;;
67092;SDS011;54011;50.772;7.730;2023-09-18T04:24:21;13.00;;;3.63;;
67092;SDS011;54011;50.772;7.730;2023-09-18T04:26:48;10.32;;;3.42;;
67092;SDS011;54011;50.772;7.730;2023-09-18T04:29:16;10.65;;;3.97;;
67092;SDS011;54011;50.772;7.730;2023-09-18T04:31:42;10.40;;;3.42;;
67092;SDS011;54011;50.772;7.730;2023-09-18T04:34:08;11.70;;;3.80;;
67092;SDS011;54011;50.772;7.730;2023-09-18T04:36:35;15.38;;;3.63;;
67092;SDS011;54011;50.772;7.730;2023-09-18T04:39:03;11.60;;;3.70;;
67092;SDS011;54011;50.772;7.730;2023-09-18T04:41:30;17.60;;;4.25;;
67092;SDS011;54011;50.772;7.730;2023-09-18T04:43:57;6.95;;;2.80;;
67092;SDS011;54011;50.772;7.730;2023-09-18T04:46:23;11.70;;;3.20;;
67092;SDS011;54011;50.772;7.730;2023-09-18T04:48:50;9.85;;;3.08;;
67092;SDS011;54011;50.772;7.730;2023-09-18T04:51:18;12.77;;;3.30;;
67092;SDS011;54011;50.772;7.730;2023-09-18T04:53:44;12.55;;;3.38;;
67092;SDS011;54011;50.772;7.730;2023-09-18T04:56:09;10.60;;;3.40;;
67092;SDS011;54011;50.772;7.730;2023-09-18T04:58:38;9.90;;;3.28;;
67092;SDS011;54011;50.772;7.730;2023-09-18T05:01:04;10.98;;;3.38;;
67092;SDS011;54011;50.772;7.730;2023-09-18T05:03:33;10.75;;;3.35;;
67092;SDS011;54011;50.772;7.730;2023-09-18T05:06:00;9.80;;;3.70;;
67092;SDS011;54011;50.772;7.730;2023-09-18T05:08:26;11.35;;;3.47;;
67092;SDS011;54011;50.772;7.730;2023-09-18T05:10:51;11.98;;;3.70;;
67092;SDS011;54011;50.772;7.730;2023-09-18T05:13:19;12.30;;;3.97;;
67092;SDS011;54011;50.772;7.730;2023-09-18T05:15:44;9.48;;;3.63;;
67092;SDS011;54011;50.772;7.730;2023-09-18T05:18:12;10.60;;;3.60;;
67092;SDS011;54011;50.772;7.730;2023-09-18T05:20:39;11.82;;;4.05;;
67092;SDS011;54011;50.772;7.730;2023-09-18T05:23:06;11.73;;;3.70;;
67092;SDS011;54011;50.772;7.730;2023-09-18T05:25:34;13.18;;;3.70;;
67092;SDS011;54011;50.772;7.730;2023-09-18T05:28:03;10.18;;;3.58;;
67092;SDS011;54011;50.772;7.730;2023-09-18T05:30:31;11.48;;;3.17;;
67092;SDS011;54011;50.772;7.730;2023-09-18T05:32:59;7.68;;;3.20;;
67092;SDS011;54011;50.772;7.730;2023-09-18T05:35:40;13.07;;;3.67;;
67092;SDS011;54011;50.772;7.730;2023-09-18T05:38:07;13.35;;;3.58;;
67092;SDS011;54011;50.772;7.730;2023-09-18T05:40:33;10.80;;;3.85;;
67092;SDS011;54011;50.772;7.730;2023-09-18T05:43:00;7.53;;;3.55;;
67092;SDS011;54011;50.772;7.730;2023-09-18T05:45:25;11.30;;;3.03;;
67092;SDS011;54011;50.772;7.730;2023-09-18T05:47:52;11.05;;;3.05;;
67092;SDS011;54011;50.772;7.730;2023-09-18T05:50:30;11.90;;;3.88;;
67092;SDS011;54011;50.772;7.730;2023-09-18T05:52:58;9.70;;;2.60;;
67092;SDS011;54011;50.772;7.730;2023-09-18T05:55:25;11.48;;;2.70;;
67092;SDS011;54011;50.772;7.730;2023-09-18T05:57:52;9.88;;;2.38;;
67092;SDS011;54011;50.772;7.730;2023-09-18T06:00:21;12.35;;;2.83;;
67092;SDS011;54011;50.772;7.730;2023-09-18T06:02:50;8.25;;;2.58;;
67092;SDS011;54011;50.772;7.730;2023-09-18T06:05:16;9.70;;;2.55;;
67092;SDS011;54011;50.772;7.730;2023-09-18T06:07:46;6.90;;;2.38;;
67092;SDS011;54011;50.772;7.730;2023-09-18T06:10:18;9.00;;;2.70;;
67092;SDS011;54011;50.772;7.730;2023-09-18T06:12:44;7.38;;;2.60;;
67092;SDS011;54011;50.772;7.730;2023-09-18T06:15:13;7.50;;;2.58;;
67092;SDS011;54011;50.772;7.730;2023-09-18T06:17:41;11.18;;;2.60;;
67092;SDS011;54011;50.772;7.730;2023-09-18T06:20:11;13.43;;;2.40;;
67092;SDS011;54011;50.772;7.730;2023-09-18T06:22:38;7.45;;;2.45;;
67092;SDS011;54011;50.772;7.730;2023-09-18T06:25:06;10.70;;;2.70;;
67092;SDS011;54011;50.772;7.730;2023-09-18T06:27:34;6.13;;;1.73;;
67092;SDS011;54011;50.772;7.730;2023-09-18T06:30:04;7.25;;;2.42;;
67092;SDS011;54011;50.772;7.730;2023-09-18T06:32:30;3.28;;;1.48;;
67092;SDS011;54011;50.772;7.730;2023-09-18T06:34:56;9.63;;;2.30;;
67092;SDS011;54011;50.772;7.730;2023-09-18T06:37:23;11.13;;;2.20;;
67092;SDS011;54011;50.772;7.730;2023-09-18T06:39:49;10.00;;;2.15;;
67092;SDS011;54011;50.772;7.730;2023-09-18T06:42:15;4.32;;;1.45;;
67092;SDS011;54011;50.772;7.730;2023-09-18T06:44:40;6.18;;;1.85;;
67092;SDS011;54011;50.772;7.730;2023-09-18T06:47:06;10.45;;;2.13;;
67092;SDS011;54011;50.772;7.730;2023-09-18T06:49:32;5.68;;;1.77;;
67092;SDS011;54011;50.772;7.730;2023-09-18T06:51:57;4.53;;;1.70;;
67092;SDS011;54011;50.772;7.730;2023-09-18T06:54:23;8.43;;;2.00;;
67092;SDS011;54011;50.772;7.730;2023-09-18T06:56:56;7.85;;;2.05;;
67092;SDS011;54011;50.772;7.730;2023-09-18T06:59:24;7.28;;;1.58;;
67092;SDS011;54011;50.772;7.730;2023-09-18T07:01:58;9.98;;;1.73;;
67092;SDS011;54011;50.772;7.730;2023-09-18T07:04:29;8.57;;;2.00;;
67092;SDS011;54011;50.772;7.730;2023-09-18T07:06:55;8.43;;;1.90;;
67092;SDS011;54011;50.772;7.730;2023-09-18T07:09:34;8.13;;;2.22;;
67092;SDS011;54011;50.772;7.730;2023-09-18T07:12:15;6.78;;;1.95;;
67092;SDS011;54011;50.772;7.730;2023-09-18T07:14:46;6.32;;;1.23;;
67092;SDS011;54011;50.772;7.730;2023-09-18T07:17:15;6.40;;;1.80;;
67092;SDS011;54011;50.772;7.730;2023-09-18T07:19:45;6.70;;;1.85;;
67092;SDS011;54011;50.772;7.730;2023-09-18T07:22:54;6.63;;;1.60;;
67092;SDS011;54011;50.772;7.730;2023-09-18T07:25:24;10.70;;;2.03;;
67092;SDS011;54011;50.772;7.730;2023-09-18T07:27:55;10.05;;;2.40;;
67092;SDS011;54011;50.772;7.730;2023-09-18T07:30:27;6.22;;;1.95;;
67092;SDS011;54011;50.772;7.730;2023-09-18T07:33:38;10.80;;;2.20;;
67092;SDS011;54011;50.772;7.730;2023-09-18T07:36:11;5.85;;;1.75;;
67092;SDS011;54011;50.772;7.730;2023-09-18T07:38:36;6.80;;;1.60;;
67092;SDS011;54011;50.772;7.730;2023-09-18T07:41:18;7.05;;;1.98;;
67092;SDS011;54011;50.772;7.730;2023-09-18T07:44:00;4.57;;;1.50;;
67092;SDS011;54011;50.772;7.730;2023-09-18T07:49:48;5.85;;;1.77;;
67092;SDS011;54011;50.772;7.730;2023-09-18T07:52:19;3.72;;;1.33;;
67092;SDS011;54011;50.772;7.730;2023-09-18T07:59:54;5.47;;;1.48;;
67092;SDS011;54011;50.772;7.730;2023-09-18T08:02:23;5.88;;;1.65;;
67092;SDS011;54011;50.772;7.730;2023-09-18T08:04:57;7.13;;;1.80;;
67092;SDS011;54011;50.772;7.730;2023-09-18T08:07:23;7.63;;;1.50;;
67092;SDS011;54011;50.772;7.730;2023-09-18T08:10:09;5.85;;;1.88;;
67092;SDS011;54011;50.772;7.730;2023-09-18T08:12:38;8.93;;;1.75;;
67092;SDS011;54011;50.772;7.730;2023-09-18T08:15:05;6.82;;;1.40;;
67092;SDS011;54011;50.772;7.730;2023-09-18T08:17:33;4.72;;;1.30;;
67092;SDS011;54011;50.772;7.730;2023-09-18T08:20:08;5.43;;;1.52;;
67092;SDS011;54011;50.772;7.730;2023-09-18T08:22:56;8.95;;;1.58;;
67092;SDS011;54011;50.772;7.730;2023-09-18T08:26:02;10.82;;;1.83;;
67092;SDS011;54011;50.772;7.730;2023-09-18T08:28:34;6.15;;;1.50;;
67092;SDS011;54011;50.772;7.730;2023-09-18T08:31:18;8.20;;;1.67;;
67092;SDS011;54011;50.772;7.730;2023-09-18T08:33:45;6.90;;;1.52;;
67092;SDS011;54011;50.772;7.730;2023-09-18T08:36:50;6.10;;;1.55;;
67092;SDS011;54011;50.772;7.730;2023-09-18T08:39:16;6.03;;;1.65;;
67092;SDS011;54011;50.772;7.730;2023-09-18T08:41:46;4.47;;;1.55;;
67092;SDS011;54011;50.772;7.730;2023-09-18T08:44:20;7.78;;;1.58;;
67092;SDS011;54011;50.772;7.730;2023-09-18T08:46:52;5.57;;;1.50;;
67092;SDS011;54011;50.772;7.730;2023-09-18T08:49:19;6.60;;;1.75;;
67092;SDS011;54011;50.772;7.730;2023-09-18T08:51:48;7.38;;;1.50;;
67092;SDS011;54011;50.772;7.730;2023-09-18T08:54:15;7.15;;;1.58;;
67092;SDS011;54011;50.772;7.730;2023-09-18T08:56:44;5.93;;;1.27;;
67092;SDS011;54011;50.772;7.730;2023-09-18T08:59:10;5.72;;;1.40;;
67092;SDS011;54011;50.772;7.730;2023-09-18T09:01:38;6.45;;;1.48;;
67092;SDS011;54011;50.772;7.730;2023-09-18T09:04:04;7.25;;;1.33;;
67092;SDS011;54011;50.772;7.730;2023-09-18T09:06:30;5.47;;;1.20;;
67092;SDS011;54011;50.772;7.730;2023-09-18T09:08:56;5.65;;;1.40;;
67092;SDS011;54011;50.772;7.730;2023-09-18T09:11:21;7.97;;;1.40;;
67092;SDS011;54011;50.772;7.730;2023-09-18T09:14:12;4.80;;;1.10;;
67092;SDS011;54011;50.772;7.730;2023-09-18T09:16:47;8.93;;;1.50;;
67092;SDS011;54011;50.772;7.730;2023-09-18T09:19:17;2.13;;;0.93;;
67092;SDS011;54011;50.772;7.730;2023-09-18T09:21:44;5.38;;;1.25;;
67092;SDS011;54011;50.772;7.730;2023-09-18T09:24:13;6.60;;;1.55;;
67092;SDS011;54011;50.772;7.730;2023-09-18T09:26:40;5.85;;;1.58;;
67092;SDS011;54011;50.772;7.730;2023-09-18T09:29:16;8.38;;;1.55;;
67092;SDS011;54011;50.772;7.730;2023-09-18T09:31:46;4.00;;;1.35;;
67092;SDS011;54011;50.772;7.730;2023-09-18T09:34:14;6.03;;;1.30;;
67092;SDS011;54011;50.772;7.730;2023-09-18T09:36:52;6.47;;;1.30;;
67092;SDS011;54011;50.772;7.730;2023-09-18T09:39:19;4.63;;;1.38;;
67092;SDS011;54011;50.772;7.730;2023-09-18T09:41:47;4.43;;;1.25;;
67092;SDS011;54011;50.772;7.730;2023-09-18T09:44:17;5.68;;;1.25;;
67092;SDS011;54011;50.772;7.730;2023-09-18T09:46:46;7.80;;;1.08;;
67092;SDS011;54011;50.772;7.730;2023-09-18T09:49:13;6.13;;;1.33;;
67092;SDS011;54011;50.772;7.730;2023-09-18T09:51:40;5.32;;;1.42;;
67092;SDS011;54011;50.772;7.730;2023-09-18T09:54:10;6.28;;;1.35;;
67092;SDS011;54011;50.772;7.730;2023-09-18T09:59:14;6.20;;;1.40;;
67092;SDS011;54011;50.772;7.730;2023-09-18T10:01:48;3.28;;;1.27;;
67092;SDS011;54011;50.772;7.730;2023-09-18T10:04:18;5.90;;;1.42;;
67092;SDS011;54011;50.772;7.730;2023-09-18T10:06:47;5.65;;;1.17;;
67092;SDS011;54011;50.772;7.730;2023-09-18T10:09:20;5.85;;;1.40;;
67092;SDS011;54011;50.772;7.730;2023-09-18T10:11:54;2.95;;;0.98;;
67092;SDS011;54011;50.772;7.730;2023-09-18T10:14:29;4.80;;;1.40;;
67092;SDS011;54011;50.772;7.730;2023-09-18T10:17:04;10.00;;;1.40;;
67092;SDS011;54011;50.772;7.730;2023-09-18T10:19:40;5.55;;;1.30;;
67092;SDS011;54011;50.772;7.730;2023-09-18T10:27:15;4.03;;;1.50;;
67092;SDS011;54011;50.772;7.730;2023-09-18T10:29:45;5.88;;;1.35;;
67092;SDS011;54011;50.772;7.730;2023-09-18T10:32:14;4.85;;;1.52;;
67092;SDS011;54011;50.772;7.730;2023-09-18T10:34:41;5.15;;;1.38;;
67092;SDS011;54011;50.772;7.730;2023-09-18T10:37:08;4.53;;;1.27;;
67092;SDS011;54011;50.772;7.730;2023-09-18T10:39:38;3.72;;;1.30;;
67092;SDS011;54011;50.772;7.730;2023-09-18T10:42:08;3.95;;;1.33;;
67092;SDS011;54011;50.772;7.730;2023-09-18T10:44:34;3.72;;;1.20;;
67092;SDS011;54011;50.772;7.730;2023-09-18T10:47:02;7.28;;;1.50;;
67092;SDS011;54011;50.772;7.730;2023-09-18T10:49:31;3.92;;;1.20;;
67092;SDS011;54011;50.772;7.730;2023-09-18T10:51:57;3.63;;;1.23;;
67092;SDS011;54011;50.772;7.730;2023-09-18T10:54:25;4.88;;;1.10;;
67092;SDS011;54011;50.772;7.730;2023-09-18T10:56:52;6.72;;;1.20;;
67092;SDS011;54011;50.772;7.730;2023-09-18T10:59:20;5.07;;;1.27;;
67092;SDS011;54011;50.772;7.730;2023-09-18T11:01:46;6.53;;;1.35;;
67092;SDS011;54011;50.772;7.730;2023-09-18T11:04:17;5.25;;;1.40;;
67092;SDS011;54011;50.772;7.730;2023-09-18T11:09:25;6.03;;;1.23;;
67092;SDS011;54011;50.772;7.730;2023-09-18T11:11:53;6.10;;;1.40;;
67092;SDS011;54011;50.772;7.730;2023-09-18T11:14:49;4.30;;;1.10;;
67092;SDS011;54011;50.772;7.730;2023-09-18T11:17:32;2.97;;;1.10;;
67092;SDS011;54011;50.772;7.730;2023-09-18T11:22:55;6.88;;;1.42;;
67092;SDS011;54011;50.772;7.730;2023-09-18T11:25:38;7.55;;;1.63;;
67092;SDS011;54011;50.772;7.730;2023-09-18T11:28:06;3.83;;;1.20;;
67092;SDS011;54011;50.772;7.730;2023-09-18T11:30:36;5.93;;;1.50;;
67092;SDS011;54011;50.772;7.730;2023-09-18T11:33:04;4.25;;;1.40;;
67092;SDS011;54011;50.772;7.730;2023-09-18T11:35:31;4.65;;;1.25;;
67092;SDS011;54011;50.772;7.730;2023-09-18T11:38:08;3.33;;;1.10;;
67092;SDS011;54011;50.772;7.730;2023-09-18T11:40:36;3.97;;;1.00;;
67092;SDS011;54011;50.772;7.730;2023-09-18T11:43:19;6.43;;;1.65;;
67092;SDS011;54011;50.772;7.730;2023-09-18T11:45:52;5.70;;;1.30;;
67092;SDS011;54011;50.772;7.730;2023-09-18T11:48:20;5.05;;;1.38;;
67092;SDS011;54011;50.772;7.730;2023-09-18T11:50:46;4.40;;;1.20;;
67092;SDS011;54011;50.772;7.730;2023-09-18T11:53:16;5.78;;;1.60;;
67092;SDS011;54011;50.772;7.730;2023-09-18T11:55:46;3.28;;;1.15;;
67092;SDS011;54011;50.772;7.730;2023-09-18T11:58:13;6.30;;;1.30;;
67092;SDS011;54011;50.772;7.730;2023-09-18T12:00:40;4.50;;;1.40;;
67092;SDS011;54011;50.772;7.730;2023-09-18T12:06:08;3.97;;;1.10;;
67092;SDS011;54011;50.772;7.730;2023-09-18T12:08:38;4.43;;;1.13;;
67092;SDS011;54011;50.772;7.730;2023-09-18T12:11:07;5.80;;;1.33;;
67092;SDS011;54011;50.772;7.730;2023-09-18T12:13:34;3.85;;;0.90;;
67092;SDS011;54011;50.772;7.730;2023-09-18T12:16:03;5.93;;;1.30;;
67092;SDS011;54011;50.772;7.730;2023-09-18T12:18:35;6.68;;;1.45;;
67092;SDS011;54011;50.772;7.730;2023-09-18T12:21:05;5.35;;;1.10;;
67092;SDS011;54011;50.772;7.730;2023-09-18T12:23:37;1.80;;;0.73;;
67092;SDS011;54011;50.772;7.730;2023-09-18T12:26:04;3.90;;;1.00;;
67092;SDS011;54011;50.772;7.730;2023-09-18T12:28:37;6.15;;;1.52;;
67092;SDS011;54011;50.772;7.730;2023-09-18T12:31:03;2.05;;;0.90;;
67092;SDS011;54011;50.772;7.730;2023-09-18T12:33:37;2.80;;;1.00;;
67092;SDS011;54011;50.772;7.730;2023-09-18T12:36:05;4.00;;;1.23;;
67092;SDS011;54011;50.772;7.730;2023-09-18T12:38:34;3.33;;;1.13;;
67092;SDS011;54011;50.772;7.730;2023-09-18T12:41:02;4.50;;;1.10;;
67092;SDS011;54011;50.772;7.730;2023-09-18T12:46:01;3.00;;;1.03;;
67092;SDS011;54011;50.772;7.730;2023-09-18T12:48:28;2.78;;;1.10;;
67092;SDS011;54011;50.772;7.730;2023-09-18T12:51:06;5.75;;;1.23;;
67092;SDS011;54011;50.772;7.730;2023-09-18T12:53:32;3.67;;;1.05;;
67092;SDS011;54011;50.772;7.730;2023-09-18T12:56:05;4.78;;;1.15;;
67092;SDS011;54011;50.772;7.730;2023-09-18T12:58:31;3.55;;;1.20;;
67092;SDS011;54011;50.772;7.730;2023-09-18T13:00:57;2.50;;;1.00;;
67092;SDS011;54011;50.772;7.730;2023-09-18T13:03:32;5.32;;;1.33;;
67092;SDS011;54011;50.772;7.730;2023-09-18T13:06:11;5.13;;;1.40;;
67092;SDS011;54011;50.772;7.730;2023-09-18T13:08:42;5.55;;;1.23;;
67092;SDS011;54011;50.772;7.730;2023-09-18T13:11:09;3.97;;;1.30;;
67092;SDS011;54011;50.772;7.730;2023-09-18T13:13:36;6.90;;;1.45;;
67092;SDS011;54011;50.772;7.730;2023-09-18T13:16:09;3.10;;;1.08;;
67092;SDS011;54011;50.772;7.730;2023-09-18T13:18:37;4.75;;;1.23;;
67092;SDS011;54011;50.772;7.730;2023-09-18T13:21:13;5.68;;;1.33;;
67092;SDS011;54011;50.772;7.730;2023-09-18T13:23:41;4.95;;;1.40;;
67092;SDS011;54011;50.772;7.730;2023-09-18T13:26:08;9.50;;;1.33;;
67092;SDS011;54011;50.772;7.730;2023-09-18T13:28:35;4.07;;;1.20;;
67092;SDS011;54011;50.772;7.730;2023-09-18T13:31:03;6.32;;;1.38;;
67092;SDS011;54011;50.772;7.730;2023-09-18T13:33:32;5.03;;;1.30;;
67092;SDS011;54011;50.772;7.730;2023-09-18T13:36:03;3.33;;;1.10;;
67092;SDS011;54011;50.772;7.730;2023-09-18T13:38:30;5.65;;;1.55;;
67092;SDS011;54011;50.772;7.730;2023-09-18T13:40:57;3.47;;;1.30;;
67092;SDS011;54011;50.772;7.730;2023-09-18T13:43:23;4.40;;;1.40;;
67092;SDS011;54011;50.772;7.730;2023-09-18T13:45:49;7.15;;;1.20;;
67092;SDS011;54011;50.772;7.730;2023-09-18T13:48:19;3.53;;;1.23;;
67092;SDS011;54011;50.772;7.730;2023-09-18T13:50:45;4.95;;;1.23;;
67092;SDS011;54011;50.772;7.730;2023-09-18T13:53:13;4.10;;;1.13;;
67092;SDS011;54011;50.772;7.730;2023-09-18T13:55:39;2.75;;;1.20;;
67092;SDS011;54011;50.772;7.730;2023-09-18T13:58:04;6.03;;;1.48;;
67092;SDS011;54011;50.772;7.730;2023-09-18T14:00:31;4.82;;;1.20;;
67092;SDS011;54011;50.772;7.730;2023-09-18T14:02:57;5.55;;;1.40;;
67092;SDS011;54011;50.772;7.730;2023-09-18T14:05:23;4.63;;;1.30;;
67092;SDS011;54011;50.772;7.730;2023-09-18T14:07:49;4.15;;;1.30;;
67092;SDS011;54011;50.772;7.730;2023-09-18T14:10:16;3.95;;;1.30;;
67092;SDS011;54011;50.772;7.730;2023-09-18T14:12:43;9.77;;;1.42;;
67092;SDS011;54011;50.772;7.730;2023-09-18T14:15:09;7.72;;;1.33;;
67092;SDS011;54011;50.772;7.730;2023-09-18T14:17:35;4.00;;;1.23;;
67092;SDS011;54011;50.772;7.730;2023-09-18T14:20:05;6.65;;;1.35;;
67092;SDS011;54011;50.772;7.730;2023-09-18T14:24:58;3.80;;;1.00;;
67092;SDS011;54011;50.772;7.730;2023-09-18T14:27:24;3.08;;;1.13;;
67092;SDS011;54011;50.772;7.730;2023-09-18T14:29:50;3.40;;;1.20;;
67092;SDS011;54011;50.772;7.730;2023-09-18T14:32:15;3.92;;;1.25;;
67092;SDS011;54011;50.772;7.730;2023-09-18T14:34:41;3.92;;;1.30;;
67092;SDS011;54011;50.772;7.730;2023-09-18T14:37:07;5.47;;;1.60;;
67092;SDS011;54011;50.772;7.730;2023-09-18T14:39:35;5.70;;;1.35;;
67092;SDS011;54011;50.772;7.730;2023-09-18T14:42:00;4.25;;;1.17;;
67092;SDS011;54011;50.772;7.730;2023-09-18T14:44:26;3.35;;;1.30;;
67092;SDS011;54011;50.772;7.730;2023-09-18T14:46:53;4.82;;;1.30;;
67092;SDS011;54011;50.772;7.730;2023-09-18T14:49:21;4.57;;;1.23;;
67092;SDS011;54011;50.772;7.730;2023-09-18T14:51:48;5.25;;;1.40;;
67092;SDS011;54011;50.772;7.730;2023-09-18T14:54:15;6.80;;;1.45;;
67092;SDS011;54011;50.772;7.730;2023-09-18T14:56:41;5.10;;;1.00;;
67092;SDS011;54011;50.772;7.730;2023-09-18T14:59:07;3.75;;;1.17;;
67092;SDS011;54011;50.772;7.730;2023-09-18T15:01:34;4.53;;;1.23;;
67092;SDS011;54011;50.772;7.730;2023-09-18T15:04:02;4.07;;;1.10;;
67092;SDS011;54011;50.772;7.730;2023-09-18T15:06:28;5.18;;;1.40;;
67092;SDS011;54011;50.772;7.730;2023-09-18T15:08:54;3.75;;;1.17;;
67092;SDS011;54011;50.772;7.730;2023-09-18T15:11:21;5.70;;;1.38;;
67092;SDS011;54011;50.772;7.730;2023-09-18T15:13:46;4.60;;;1.20;;
67092;SDS011;54011;50.772;7.730;2023-09-18T15:16:12;5.95;;;1.38;;
67092;SDS011;54011;50.772;7.730;2023-09-18T15:18:38;3.92;;;1.35;;
67092;SDS011;54011;50.772;7.730;2023-09-18T15:21:04;6.65;;;1.27;;
67092;SDS011;54011;50.772;7.730;2023-09-18T15:23:31;5.20;;;1.20;;
67092;SDS011;54011;50.772;7.730;2023-09-18T15:25:59;6.53;;;1.30;;
67092;SDS011;54011;50.772;7.730;2023-09-18T15:28:25;5.93;;;1.45;;